Time,TemperatureF,DewpointF,PressureIn,WindDirection,WindDirectionDegrees,WindSpeedMPH,WindSpeedGustMPH,Humidity,HourlyPrecipIn,Conditions,Clouds,dailyrainin,SoftwareType,DateUTC
2013-04-24 00:02:00,43.7,39.0,30.12,ESE,115,0.0,0.0,83,0.00,,,0.00,weatherlink.com 1.10,2013-04-24 04:02:00,
2013-04-24 00:17:00,43.3,39.0,30.12,West,261,0.0,0.0,84,0.00,,,0.00,weatherlink.com 1.10,2013-04-24 04:17:00,
2013-04-24 00:32:00,42.7,39.0,30.12,SE,132,0.0,0.0,85,0.00,,,0.00,weatherlink.com 1.10,2013-04-24 04:32:00,
2013-04-24 00:47:00,42.8,39.0,30.11,East,80,0.0,0.0,85,0.00,,,0.00,weatherlink.com 1.10,2013-04-24 04:47:00,
2013-04-24 01:02:00,43.0,39.0,30.10,SE,131,0.0,0.0,84,0.00,,,0.00,weatherlink.com 1.10,2013-04-24 05:02:00,
2013-04-24 01:17:00,42.6,38.0,30.09,SE,131,0.0,0.0,85,0.00,,,0.00,weatherlink.com 1.10,2013-04-24 05:17:00,
2013-04-24 01:32:00,41.9,38.0,30.09,SE,131,0.0,0.0,87,0.00,,,0.00,weatherlink.com 1.10,2013-04-24 05:32:00,
2013-04-24 01:47:00,41.2,38.0,30.09,SE,131,0.0,0.0,88,0.00,,,0.00,weatherlink.com 1.10,2013-04-24 05:47:00,
2013-04-24 02:02:00,41.6,38.0,30.08,NE,43,0.0,0.0,88,0.00,,,0.00,weatherlink.com 1.10,2013-04-24 06:02:00,
2013-04-24 02:17:00,41.6,38.0,30.08,SSW,207,0.0,0.0,87,0.00,,,0.00,weatherlink.com 1.10,2013-04-24 06:17:00,
2013-04-24 02:32:00,41.8,38.0,30.08,SE,132,0.0,0.0,87,0.00,,,0.00,weatherlink.com 1.10,2013-04-24 06:32:00,
2013-04-24 02:47:00,42.0,38.0,30.07,ESE,110,0.0,1.0,87,0.00,,,0.00,weatherlink.com 1.10,2013-04-24 06:47:00,
2013-04-24 03:02:00,42.3,38.0,30.07,SE,128,0.0,1.0,86,0.00,,,0.00,weatherlink.com 1.10,2013-04-24 07:02:00,
2013-04-24 03:17:00,42.2,38.0,30.06,ESE,123,0.0,0.0,85,0.00,,,0.00,weatherlink.com 1.10,2013-04-24 07:17:00,
2013-04-24 03:32:00,41.4,38.0,30.06,SE,139,0.0,0.0,87,0.00,,,0.00,weatherlink.com 1.10,2013-04-24 07:32:00,
2013-04-24 03:47:00,40.7,38.0,30.06,South,180,0.0,0.0,88,0.00,,,0.00,weatherlink.com 1.10,2013-04-24 07:47:00,
2013-04-24 04:02:00,39.9,37.0,30.07,South,180,0.0,0.0,89,0.00,,,0.00,weatherlink.com 1.10,2013-04-24 08:02:00,
2013-04-24 04:17:00,39.7,37.0,30.07,South,181,0.0,0.0,90,0.00,,,0.00,weatherlink.com 1.10,2013-04-24 08:17:00,
2013-04-24 04:32:00,40.1,38.0,30.07,North,1,0.0,0.0,90,0.00,,,0.00,weatherlink.com 1.10,2013-04-24 08:32:00,
2013-04-24 04:47:00,42.1,38.0,30.06,NNW,339,0.0,3.0,86,0.00,,,0.00,weatherlink.com 1.10,2013-04-24 08:47:00,
2013-04-24 05:02:00,42.6,38.0,30.06,WNW,301,0.0,1.0,85,0.00,,,0.00,weatherlink.com 1.10,2013-04-24 09:02:00,
2013-04-24 05:17:00,42.1,38.0,30.06,SSE,158,0.0,1.0,85,0.00,,,0.00,weatherlink.com 1.10,2013-04-24 09:17:00,
2013-04-24 05:32:00,41.4,38.0,30.06,SE,135,0.0,1.0,86,0.00,,,0.00,weatherlink.com 1.10,2013-04-24 09:32:00,
2013-04-24 05:47:00,41.2,38.0,30.07,SSE,148,0.0,0.0,87,0.00,,,0.00,weatherlink.com 1.10,2013-04-24 09:47:00,
2013-04-24 06:02:00,40.5,37.0,30.07,SSE,148,0.0,0.0,88,0.00,,,0.00,weatherlink.com 1.10,2013-04-24 10:02:00,
2013-04-24 06:17:00,39.5,37.0,30.08,SW,218,0.0,0.0,89,0.00,,,0.00,weatherlink.com 1.10,2013-04-24 10:17:00,
2013-04-24 06:33:00,39.6,37.0,30.07,North,355,0.0,2.0,91,0.00,,,0.00,weatherlink.com 1.10,2013-04-24 10:33:00,
2013-04-24 06:48:00,40.4,38.0,30.07,NNE,20,0.0,0.0,90,0.00,,,0.00,weatherlink.com 1.10,2013-04-24 10:48:00,
2013-04-24 07:03:00,40.7,38.0,30.07,SW,231,0.0,1.0,88,0.00,,,0.00,weatherlink.com 1.10,2013-04-24 11:03:00,
2013-04-24 07:18:00,40.6,38.0,30.08,SW,233,0.0,0.0,89,0.00,,,0.00,weatherlink.com 1.10,2013-04-24 11:18:00,
2013-04-24 07:33:00,41.6,39.0,30.07,SW,232,0.0,0.0,89,0.00,,,0.00,weatherlink.com 1.10,2013-04-24 11:33:00,
2013-04-24 07:48:00,43.2,39.0,30.07,SW,232,0.0,0.0,86,0.00,,,0.00,weatherlink.com 1.10,2013-04-24 11:48:00,
2013-04-24 08:03:00,45.3,40.0,30.07,WNW,283,0.0,0.0,81,0.00,,,0.00,weatherlink.com 1.10,2013-04-24 12:03:00,
2013-04-24 08:18:00,46.4,41.0,30.07,West,276,0.0,0.0,80,0.00,,,0.00,weatherlink.com 1.10,2013-04-24 12:18:00,
2013-04-24 08:33:00,48.2,41.0,30.06,SW,236,0.0,3.0,77,0.00,,,0.00,weatherlink.com 1.10,2013-04-24 12:33:00,
2013-04-24 08:48:00,49.5,42.0,30.05,South,191,3.0,4.0,75,0.00,,,0.00,weatherlink.com 1.10,2013-04-24 12:48:00,
2013-04-24 09:03:00,51.4,43.0,30.05,West,271,1.0,8.0,73,0.00,,,0.00,weatherlink.com 1.10,2013-04-24 13:03:00,
2013-04-24 09:18:00,52.8,44.0,30.04,West,281,1.0,5.0,71,0.00,,,0.00,weatherlink.com 1.10,2013-04-24 13:18:00,
2013-04-24 09:33:00,53.6,44.0,30.04,WNW,288,3.0,6.0,70,0.00,,,0.00,weatherlink.com 1.10,2013-04-24 13:33:00,
2013-04-24 09:48:00,54.5,44.0,30.04,WSW,253,2.0,7.0,69,0.00,,,0.00,weatherlink.com 1.10,2013-04-24 13:48:00,
2013-04-24 10:03:00,55.8,45.0,30.03,West,269,3.0,8.0,68,0.00,,,0.00,weatherlink.com 1.10,2013-04-24 14:03:00,
2013-04-24 10:18:00,57.3,46.0,30.03,WNW,288,4.0,6.0,65,0.00,,,0.00,weatherlink.com 1.10,2013-04-24 14:18:00,
2013-04-24 10:33:00,58.3,46.0,30.03,WNW,284,2.0,7.0,64,0.00,,,0.00,weatherlink.com 1.10,2013-04-24 14:33:00,
2013-04-24 10:48:00,59.6,46.0,30.02,NNW,335,0.0,8.0,62,0.00,,,0.00,weatherlink.com 1.10,2013-04-24 14:48:00,
2013-04-24 11:03:00,60.9,47.0,30.02,North,351,1.0,5.0,61,0.00,,,0.00,weatherlink.com 1.10,2013-04-24 15:03:00,
2013-04-24 11:19:00,62.0,48.0,30.01,WSW,250,3.0,6.0,60,0.00,,,0.00,weatherlink.com 1.10,2013-04-24 15:19:00,
2013-04-24 11:34:00,62.7,48.0,30.00,North,11,5.0,12.0,59,0.00,,,0.00,weatherlink.com 1.10,2013-04-24 15:34:00,
2013-04-24 11:49:00,63.0,48.0,29.99,West,274,2.0,7.0,58,0.00,,,0.00,weatherlink.com 1.10,2013-04-24 15:49:00,
2013-04-24 12:04:00,63.1,48.0,29.98,West,275,2.0,8.0,58,0.00,,,0.00,weatherlink.com 1.10,2013-04-24 16:04:00,
2013-04-24 12:19:00,64.1,49.0,29.97,NW,304,3.0,5.0,59,0.00,,,0.00,weatherlink.com 1.10,2013-04-24 16:19:00,
2013-04-24 12:35:00,65.1,50.0,29.96,WSW,252,0.0,7.0,59,0.00,,,0.00,weatherlink.com 1.10,2013-04-24 16:35:00,
2013-04-24 12:49:00,65.3,49.0,29.96,WSW,252,2.0,7.0,57,0.00,,,0.00,weatherlink.com 1.10,2013-04-24 16:49:00,
2013-04-24 13:04:00,66.4,50.0,29.94,SW,232,3.0,6.0,56,0.00,,,0.00,weatherlink.com 1.10,2013-04-24 17:04:00,
2013-04-24 13:19:00,66.6,50.0,29.93,West,277,1.0,7.0,56,0.00,,,0.00,weatherlink.com 1.10,2013-04-24 17:19:00,
2013-04-24 13:34:00,67.7,50.0,29.93,West,277,3.0,8.0,53,0.00,,,0.00,weatherlink.com 1.10,2013-04-24 17:34:00,
2013-04-24 13:49:00,68.1,50.0,29.93,West,263,3.0,7.0,53,0.00,,,0.00,weatherlink.com 1.10,2013-04-24 17:49:00,
2013-04-24 14:04:00,68.5,51.0,29.92,SW,217,1.0,6.0,54,0.00,,,0.00,weatherlink.com 1.10,2013-04-24 18:04:00,
2013-04-24 14:19:00,68.8,51.0,29.91,South,188,2.0,7.0,53,0.00,,,0.00,weatherlink.com 1.10,2013-04-24 18:19:00,
2013-04-24 14:34:00,70.0,51.0,29.89,SW,225,3.0,5.0,51,0.00,,,0.00,weatherlink.com 1.10,2013-04-24 18:34:00,
2013-04-24 14:49:00,70.2,52.0,29.89,ESE,109,1.0,7.0,52,0.00,,,0.00,weatherlink.com 1.10,2013-04-24 18:49:00,
2013-04-24 15:04:00,71.3,52.0,29.87,NNW,333,2.0,6.0,50,0.00,,,0.00,weatherlink.com 1.10,2013-04-24 19:04:00,
2013-04-24 15:19:00,71.9,52.0,29.87,SW,228,1.0,6.0,49,0.00,,,0.00,weatherlink.com 1.10,2013-04-24 19:19:00,
2013-04-24 15:34:00,72.4,52.0,29.86,SW,232,2.0,7.0,49,0.00,,,0.00,weatherlink.com 1.10,2013-04-24 19:34:00,
2013-04-24 15:49:00,72.7,53.0,29.85,West,277,4.0,8.0,50,0.00,,,0.00,weatherlink.com 1.10,2013-04-24 19:49:00,
2013-04-24 16:05:00,73.8,53.0,29.84,NW,323,1.0,8.0,49,0.00,,,0.00,weatherlink.com 1.10,2013-04-24 20:05:00,
2013-04-24 16:20:00,73.7,53.0,29.84,WNW,300,1.0,7.0,48,0.00,,,0.00,weatherlink.com 1.10,2013-04-24 20:20:00,
2013-04-24 16:35:00,72.1,53.0,29.84,SE,138,1.0,8.0,51,0.00,,,0.00,weatherlink.com 1.10,2013-04-24 20:35:00,
2013-04-24 16:50:00,69.7,52.0,29.84,SSE,167,5.0,7.0,54,0.00,,,0.00,weatherlink.com 1.10,2013-04-24 20:50:00,
2013-04-24 17:05:00,68.5,52.0,29.84,NE,36,2.0,5.0,56,0.00,,,0.00,weatherlink.com 1.10,2013-04-24 21:05:00,
2013-04-24 17:20:00,67.5,52.0,29.84,North,11,0.0,4.0,59,0.00,,,0.00,weatherlink.com 1.10,2013-04-24 21:20:00,
2013-04-24 17:35:00,66.5,52.0,29.83,East,98,1.0,4.0,61,0.00,,,0.00,weatherlink.com 1.10,2013-04-24 21:35:00,
2013-04-24 17:50:00,64.7,52.0,29.82,SE,130,0.0,5.0,63,0.00,,,0.00,weatherlink.com 1.10,2013-04-24 21:50:00,
2013-04-24 18:05:00,63.5,52.0,29.82,NNE,25,1.0,3.0,66,0.00,,,0.00,weatherlink.com 1.10,2013-04-24 22:05:00,
2013-04-24 18:20:00,62.5,52.0,29.81,NNE,23,0.0,3.0,68,0.00,,,0.00,weatherlink.com 1.10,2013-04-24 22:20:00,
2013-04-24 18:35:00,61.8,52.0,29.81,SE,129,1.0,4.0,70,0.00,,,0.00,weatherlink.com 1.10,2013-04-24 22:35:00,
2013-04-24 18:50:00,61.7,52.0,29.81,South,173,0.0,2.0,71,0.00,,,0.00,weatherlink.com 1.10,2013-04-24 22:50:00,
2013-04-24 19:05:00,61.8,52.0,29.82,East,85,1.0,2.0,71,0.00,,,0.00,weatherlink.com 1.10,2013-04-24 23:05:00,
2013-04-24 19:20:00,62.5,53.0,29.82,WNW,294,1.0,2.0,71,0.00,,,0.00,weatherlink.com 1.10,2013-04-24 23:20:00,
2013-04-24 19:35:00,63.4,54.0,29.83,SSW,201,2.0,6.0,71,0.00,,,0.00,weatherlink.com 1.10,2013-04-24 23:35:00,
2013-04-24 19:50:00,63.9,54.0,29.84,SSW,210,0.0,1.0,69,0.00,,,0.00,weatherlink.com 1.10,2013-04-24 23:50:00,
2013-04-24 20:05:00,63.9,54.0,29.84,North,349,0.0,4.0,69,0.00,,,0.00,weatherlink.com 1.10,2013-04-25 00:05:00,
2013-04-24 20:20:00,63.7,53.0,29.85,SW,218,0.0,5.0,69,0.00,,,0.00,weatherlink.com 1.10,2013-04-25 00:20:00,
2013-04-24 20:35:00,63.3,53.0,29.85,WSW,239,0.0,5.0,70,0.00,,,0.00,weatherlink.com 1.10,2013-04-25 00:35:00,
2013-04-24 20:50:00,62.9,53.0,29.85,SSW,211,1.0,3.0,71,0.00,,,0.00,weatherlink.com 1.10,2013-04-25 00:50:00,
2013-04-24 21:05:00,62.4,53.0,29.86,West,271,0.0,3.0,72,0.00,,,0.00,weatherlink.com 1.10,2013-04-25 01:05:00,
2013-04-24 21:20:00,62.0,53.0,29.86,WSW,243,2.0,4.0,73,0.00,,,0.00,weatherlink.com 1.10,2013-04-25 01:20:00,
2013-04-24 21:35:00,61.6,53.0,29.87,SW,214,1.0,4.0,74,0.00,,,0.00,weatherlink.com 1.10,2013-04-25 01:35:00,
2013-04-24 21:50:00,61.1,53.0,29.87,South,184,3.0,3.0,75,0.00,,,0.00,weatherlink.com 1.10,2013-04-25 01:50:00,
2013-04-24 22:05:00,60.7,53.0,29.87,SSW,205,0.0,4.0,76,0.00,,,0.00,weatherlink.com 1.10,2013-04-25 02:05:00,
2013-04-24 22:20:00,60.1,53.0,29.87,South,188,2.0,3.0,77,0.00,,,0.00,weatherlink.com 1.10,2013-04-25 02:20:00,
2013-04-24 22:35:00,59.8,53.0,29.87,SW,225,2.0,4.0,77,0.00,,,0.00,weatherlink.com 1.10,2013-04-25 02:35:00,
2013-04-24 22:50:00,59.5,53.0,29.86,SW,224,0.0,4.0,78,0.00,,,0.00,weatherlink.com 1.10,2013-04-25 02:50:00,
2013-04-24 23:05:00,59.1,53.0,29.86,SSW,212,0.0,2.0,79,0.00,,,0.00,weatherlink.com 1.10,2013-04-25 03:05:00,
2013-04-24 23:20:00,59.1,53.0,29.86,SSW,198,1.0,2.0,79,0.00,,,0.00,weatherlink.com 1.10,2013-04-25 03:20:00,
2013-04-24 23:35:00,59.0,53.0,29.86,West,262,0.0,3.0,80,0.00,,,0.00,weatherlink.com 1.10,2013-04-25 03:35:00,
2013-04-24 23:50:00,59.0,53.0,29.85,SSW,204,0.0,3.0,80,0.00,,,0.00,weatherlink.com 1.10,2013-04-25 03:50:00,